Time,TemperatureF,DewpointF,PressureIn,WindDirection,WindDirectionDegrees,WindSpeedMPH,WindSpeedGustMPH,Humidity,HourlyPrecipIn,Conditions,Clouds,dailyrainin,SoftwareType,DateUTC
2013-08-06 00:00:00,66.2,64.7,29.66,SSW,192,4.0,9.0,95,0.00,,,0.00,Wunderground v.1.15,2013-08-06 04:00:00,
2013-08-06 00:10:00,66.1,64.6,29.65,South,175,5.0,6.0,95,0.00,,,0.00,Wunderground v.1.15,2013-08-06 04:10:00,
2013-08-06 00:20:00,65.9,64.4,29.65,SSE,152,5.0,5.0,95,0.00,,,0.00,Wunderground v.1.15,2013-08-06 04:20:00,
2013-08-06 00:30:00,65.8,64.3,29.64,SE,146,5.0,5.0,95,0.00,,,0.00,Wunderground v.1.15,2013-08-06 04:30:00,
2013-08-06 00:40:00,65.6,64.4,29.63,SSE,153,5.0,5.0,96,0.00,,,0.00,Wunderground v.1.15,2013-08-06 04:40:00,
2013-08-06 00:50:00,65.6,64.4,29.64,South,183,6.0,6.0,96,0.00,,,0.00,Wunderground v.1.15,2013-08-06 04:50:00,
2013-08-06 01:00:00,65.5,64.3,29.64,South,185,6.0,6.0,96,0.00,,,0.00,Wunderground v.1.15,2013-08-06 05:00:00,
2013-08-06 01:10:00,65.5,64.3,29.65,SSW,210,6.0,10.0,96,0.00,,,0.00,Wunderground v.1.15,2013-08-06 05:10:00,
2013-08-06 01:20:00,65.3,64.1,29.64,SSW,203,5.0,10.0,96,0.00,,,0.00,Wunderground v.1.15,2013-08-06 05:20:00,
2013-08-06 01:30:00,65.2,64.0,29.64,SSW,208,4.0,10.0,96,0.00,,,0.00,Wunderground v.1.15,2013-08-06 05:30:00,
2013-08-06 01:40:00,65.3,64.1,29.65,SSW,209,5.0,5.0,96,0.00,,,0.00,Wunderground v.1.15,2013-08-06 05:40:00,
2013-08-06 01:50:00,65.4,64.2,29.64,SW,222,3.0,10.0,96,0.00,,,0.00,Wunderground v.1.15,2013-08-06 05:50:00,
2013-08-06 02:00:00,65.3,63.8,29.63,SW,222,1.0,1.0,95,0.00,,,0.00,Wunderground v.1.15,2013-08-06 06:00:00,
2013-08-06 02:10:00,65.2,63.7,29.63,SW,228,2.0,10.0,95,0.00,,,0.00,Wunderground v.1.15,2013-08-06 06:10:00,
2013-08-06 02:20:00,65.1,63.6,29.62,SSW,205,4.0,4.0,95,0.00,,,0.00,Wunderground v.1.15,2013-08-06 06:20:00,
2013-08-06 02:30:00,65.0,63.8,29.62,SSW,202,2.0,2.0,96,0.00,,,0.00,Wunderground v.1.15,2013-08-06 06:30:00,
2013-08-06 02:40:00,65.0,63.8,29.62,SSW,200,2.0,10.0,96,0.00,,,0.00,Wunderground v.1.15,2013-08-06 06:40:00,
2013-08-06 02:50:00,64.9,63.7,29.62,SW,227,2.0,10.0,96,0.00,,,0.00,Wunderground v.1.15,2013-08-06 06:50:00,
2013-08-06 03:00:00,64.9,63.7,29.62,SW,219,1.0,10.0,96,0.00,,,0.00,Wunderground v.1.15,2013-08-06 07:00:00,
2013-08-06 03:10:00,64.9,63.7,29.61,SSW,213,5.0,10.0,96,0.00,,,0.00,Wunderground v.1.15,2013-08-06 07:10:00,
2013-08-06 03:20:00,64.9,63.7,29.61,SSW,212,6.0,10.0,96,0.00,,,0.00,Wunderground v.1.15,2013-08-06 07:20:00,
2013-08-06 03:30:00,64.8,63.6,29.61,SSW,209,7.0,10.0,96,0.00,,,0.00,Wunderground v.1.15,2013-08-06 07:30:00,
2013-08-06 03:40:00,64.8,63.6,29.60,SW,223,7.0,10.0,96,0.00,,,0.00,Wunderground v.1.15,2013-08-06 07:40:00,
2013-08-06 03:50:00,64.8,63.6,29.61,SW,221,6.0,6.0,96,0.00,,,0.00,Wunderground v.1.15,2013-08-06 07:50:00,
2013-08-06 04:00:00,64.9,63.7,29.61,SW,221,4.0,4.0,96,0.00,,,0.00,Wunderground v.1.15,2013-08-06 08:00:00,
2013-08-06 04:10:00,64.9,63.7,29.61,SW,216,5.0,10.0,96,0.00,,,0.00,Wunderground v.1.15,2013-08-06 08:10:00,
2013-08-06 04:20:00,64.8,63.6,29.61,WSW,248,6.0,6.0,96,0.00,,,0.00,Wunderground v.1.15,2013-08-06 08:20:00,
2013-08-06 04:30:00,64.7,63.5,29.61,SW,220,6.0,10.0,96,0.00,,,0.00,Wunderground v.1.15,2013-08-06 08:30:00,
2013-08-06 04:40:00,64.7,63.5,29.61,SW,215,7.0,10.0,96,0.00,,,0.00,Wunderground v.1.15,2013-08-06 08:40:00,
2013-08-06 04:50:00,64.6,63.7,29.61,SW,219,6.0,6.0,97,0.00,,,0.00,Wunderground v.1.15,2013-08-06 08:50:00,
2013-08-06 05:00:00,64.6,63.7,29.62,WSW,246,2.0,10.0,97,0.00,,,0.00,Wunderground v.1.15,2013-08-06 09:00:00,
2013-08-06 05:10:00,64.6,63.7,29.62,SW,226,3.0,3.0,97,0.00,,,0.00,Wunderground v.1.15,2013-08-06 09:10:00,
2013-08-06 05:20:00,64.6,63.7,29.63,WSW,244,3.0,10.0,97,0.00,,,0.00,Wunderground v.1.15,2013-08-06 09:20:00,
2013-08-06 05:30:00,64.5,63.6,29.63,SW,219,3.0,10.0,97,0.00,,,0.00,Wunderground v.1.15,2013-08-06 09:30:00,
2013-08-06 05:40:00,64.4,63.5,29.62,SW,236,4.0,10.0,97,0.00,,,0.00,Wunderground v.1.15,2013-08-06 09:40:00,
2013-08-06 05:50:00,64.3,63.4,29.62,SW,226,2.0,2.0,97,0.00,,,0.00,Wunderground v.1.15,2013-08-06 09:50:00,
2013-08-06 06:00:00,64.2,63.3,29.62,SW,218,4.0,10.0,97,0.00,,,0.00,Wunderground v.1.15,2013-08-06 10:00:00,
2013-08-06 06:10:00,64.2,63.3,29.62,SSW,211,5.0,5.0,97,0.00,,,0.00,Wunderground v.1.15,2013-08-06 10:10:00,
2013-08-06 06:20:00,64.3,63.4,29.62,SSW,211,3.0,3.0,97,0.00,,,0.00,Wunderground v.1.15,2013-08-06 10:20:00,
2013-08-06 06:30:00,64.3,63.4,29.62,SSW,211,2.0,2.0,97,0.00,,,0.00,Wunderground v.1.15,2013-08-06 10:30:00,
2013-08-06 06:40:00,64.4,63.5,29.63,SSW,211,0.0,10.0,97,0.00,,,0.00,Wunderground v.1.15,2013-08-06 10:40:00,
2013-08-06 06:50:00,64.3,63.4,29.63,SSW,211,1.0,10.0,97,0.00,,,0.00,Wunderground v.1.15,2013-08-06 10:50:00,
2013-08-06 07:00:00,64.3,63.4,29.64,SSW,211,1.0,10.0,97,0.00,,,0.00,Wunderground v.1.15,2013-08-06 11:00:00,
2013-08-06 07:10:00,64.4,63.5,29.64,SSW,211,2.0,2.0,97,0.00,,,0.00,Wunderground v.1.15,2013-08-06 11:10:00,
2013-08-06 07:20:00,64.5,63.6,29.64,SSW,211,1.0,1.0,97,0.00,,,0.00,Wunderground v.1.15,2013-08-06 11:20:00,
2013-08-06 07:30:00,64.7,63.8,29.64,SSW,211,0.0,10.0,97,0.00,,,0.00,Wunderground v.1.15,2013-08-06 11:30:00,
2013-08-06 07:40:00,64.9,64.0,29.64,SSW,211,1.0,10.0,97,0.00,,,0.00,Wunderground v.1.15,2013-08-06 11:40:00,
2013-08-06 07:50:00,65.0,63.8,29.64,SSW,211,1.0,1.0,96,0.00,,,0.00,Wunderground v.1.15,2013-08-06 11:50:00,
2013-08-06 08:00:00,65.0,63.8,29.65,SSW,210,3.0,10.0,96,0.00,,,0.00,Wunderground v.1.15,2013-08-06 12:00:00,
2013-08-06 08:10:00,65.2,64.0,29.65,SSW,211,5.0,5.0,96,0.00,,,0.00,Wunderground v.1.15,2013-08-06 12:10:00,
2013-08-06 08:20:00,65.7,64.5,29.65,SSW,207,4.0,5.0,96,0.00,,,0.00,Wunderground v.1.15,2013-08-06 12:20:00,
2013-08-06 08:30:00,65.8,64.0,29.65,SW,219,6.0,6.0,94,0.00,,,0.00,Wunderground v.1.15,2013-08-06 12:30:00,
2013-08-06 08:40:00,66.3,63.9,29.65,SSW,204,7.0,7.0,92,0.00,,,0.00,Wunderground v.1.15,2013-08-06 12:40:00,
2013-08-06 08:50:00,66.5,64.1,29.66,SSW,213,6.0,6.0,92,0.00,,,0.00,Wunderground v.1.15,2013-08-06 12:50:00,
2013-08-06 09:00:00,67.4,64.4,29.65,SSW,202,5.0,5.0,90,0.00,,,0.00,Wunderground v.1.15,2013-08-06 13:00:00,
2013-08-06 09:10:00,68.1,64.4,29.65,SSW,197,5.0,5.0,88,0.00,,,0.00,Wunderground v.1.15,2013-08-06 13:10:00,
2013-08-06 09:20:00,67.9,64.5,29.65,SW,217,4.0,4.0,89,0.00,,,0.00,Wunderground v.1.15,2013-08-06 13:20:00,
2013-08-06 09:30:00,67.8,64.4,29.65,SSW,207,1.0,7.0,89,0.00,,,0.00,Wunderground v.1.15,2013-08-06 13:30:00,
2013-08-06 09:40:00,67.9,64.5,29.65,SSW,200,1.0,7.0,89,0.00,,,0.00,Wunderground v.1.15,2013-08-06 13:40:00,
2013-08-06 09:50:00,68.5,64.8,29.66,South,184,3.0,8.0,88,0.00,,,0.00,Wunderground v.1.15,2013-08-06 13:50:00,
2013-08-06 10:00:00,69.1,64.7,29.66,SSW,200,3.0,3.0,86,0.00,,,0.00,Wunderground v.1.15,2013-08-06 14:00:00,
2013-08-06 10:10:00,70.6,66.2,29.66,SSW,198,2.0,8.0,86,0.00,,,0.00,Wunderground v.1.15,2013-08-06 14:10:00,
2013-08-06 10:20:00,69.6,64.9,29.66,South,175,3.0,3.0,85,0.00,,,0.00,Wunderground v.1.15,2013-08-06 14:20:00,
2013-08-06 10:30:00,69.6,65.9,29.67,South,182,1.0,1.0,88,0.00,,,0.00,Wunderground v.1.15,2013-08-06 14:30:00,
2013-08-06 10:40:00,68.9,64.5,29.67,ESE,115,1.0,1.0,86,0.00,,,0.00,Wunderground v.1.15,2013-08-06 14:40:00,
2013-08-06 10:50:00,68.2,64.8,29.67,ESE,114,0.0,7.0,89,0.00,,,0.00,Wunderground v.1.15,2013-08-06 14:50:00,
2013-08-06 11:00:00,68.0,65.3,29.67,SE,134,0.0,7.0,91,0.00,,,0.00,Wunderground v.1.15,2013-08-06 15:00:00,
2013-08-06 11:10:00,68.6,65.2,29.67,SE,131,0.0,7.0,89,0.00,,,0.00,Wunderground v.1.15,2013-08-06 15:10:00,
2013-08-06 11:20:00,68.5,65.4,29.67,South,169,0.0,7.0,90,0.00,,,0.00,Wunderground v.1.15,2013-08-06 15:20:00,
2013-08-06 11:30:00,68.6,65.5,29.67,South,172,1.0,1.0,90,0.00,,,0.00,Wunderground v.1.15,2013-08-06 15:30:00,
2013-08-06 11:40:00,68.6,65.5,29.67,South,171,0.0,7.0,90,0.00,,,0.00,Wunderground v.1.15,2013-08-06 15:40:00,
2013-08-06 11:50:00,69.3,65.9,29.67,ESE,112,1.0,7.0,89,0.00,,,0.00,Wunderground v.1.15,2013-08-06 15:50:00,
2013-08-06 12:00:00,70.6,66.5,29.67,SSE,167,1.0,4.0,87,0.00,,,0.00,Wunderground v.1.15,2013-08-06 16:00:00,
2013-08-06 12:10:00,72.1,67.7,29.67,South,179,3.0,10.0,86,0.00,,,0.00,Wunderground v.1.15,2013-08-06 16:10:00,
2013-08-06 12:20:00,72.6,67.1,29.66,SSE,152,6.0,9.0,83,0.00,,,0.00,Wunderground v.1.15,2013-08-06 16:20:00,
2013-08-06 12:30:00,71.6,67.2,29.66,South,182,5.0,6.0,86,0.00,,,0.00,Wunderground v.1.15,2013-08-06 16:30:00,
2013-08-06 12:40:00,71.4,67.0,29.67,South,179,2.0,2.0,86,0.00,,,0.00,Wunderground v.1.15,2013-08-06 16:40:00,
2013-08-06 12:50:00,71.2,66.5,29.67,ESE,117,3.0,4.0,85,0.00,,,0.00,Wunderground v.1.15,2013-08-06 16:50:00,
2013-08-06 13:00:00,70.2,66.1,29.67,SE,142,2.0,2.0,87,0.00,,,0.00,Wunderground v.1.15,2013-08-06 17:00:00,
2013-08-06 13:10:00,69.8,66.7,29.67,SSE,149,1.0,1.0,90,0.00,,,0.00,Wunderground v.1.15,2013-08-06 17:10:00,
2013-08-06 13:20:00,70.3,66.9,29.66,SE,146,1.0,1.0,89,0.00,,,0.00,Wunderground v.1.15,2013-08-06 17:20:00,
2013-08-06 13:30:00,71.2,67.8,29.66,South,180,6.0,6.0,89,0.00,,,0.00,Wunderground v.1.15,2013-08-06 17:30:00,
2013-08-06 13:40:00,72.3,68.2,29.66,South,179,4.0,4.0,87,0.00,,,0.00,Wunderground v.1.15,2013-08-06 17:40:00,
2013-08-06 13:50:00,71.9,67.1,29.66,SE,140,4.0,4.0,85,0.00,,,0.00,Wunderground v.1.15,2013-08-06 17:50:00,
2013-08-06 14:00:00,72.2,68.4,29.66,South,180,2.0,9.0,88,0.00,,,0.00,Wunderground v.1.15,2013-08-06 18:00:00,
2013-08-06 14:10:00,71.3,67.2,29.66,SSE,163,4.0,9.0,87,0.00,,,0.00,Wunderground v.1.15,2013-08-06 18:10:00,
2013-08-06 14:20:00,71.3,67.6,29.66,SE,146,1.0,1.0,88,0.00,,,0.00,Wunderground v.1.15,2013-08-06 18:20:00,
2013-08-06 14:30:00,72.2,67.8,29.66,SSE,149,3.0,3.0,86,0.00,,,0.00,Wunderground v.1.15,2013-08-06 18:30:00,
2013-08-06 14:40:00,72.7,68.9,29.66,South,178,5.0,9.0,88,0.00,,,0.00,Wunderground v.1.15,2013-08-06 18:40:00,
2013-08-06 14:50:00,73.0,68.6,29.66,South,172,5.0,5.0,86,0.00,,,0.00,Wunderground v.1.15,2013-08-06 18:50:00,
2013-08-06 15:00:00,72.2,68.1,29.65,South,175,5.0,9.0,87,0.00,,,0.00,Wunderground v.1.15,2013-08-06 19:00:00,
2013-08-06 15:10:00,72.0,67.9,29.65,South,180,6.0,9.0,87,0.00,,,0.00,Wunderground v.1.15,2013-08-06 19:10:00,
2013-08-06 15:20:00,71.6,67.5,29.66,SSE,160,8.0,8.0,87,0.00,,,0.00,Wunderground v.1.15,2013-08-06 19:20:00,
2013-08-06 15:30:00,71.1,67.7,29.66,SE,144,3.0,9.0,89,0.00,,,0.00,Wunderground v.1.15,2013-08-06 19:30:00,
2013-08-06 15:40:00,70.5,67.4,29.65,South,169,5.0,9.0,90,0.00,,,0.00,Wunderground v.1.15,2013-08-06 19:40:00,
2013-08-06 15:50:00,70.8,67.7,29.65,SSE,168,7.0,10.0,90,0.00,,,0.00,Wunderground v.1.15,2013-08-06 19:50:00,
2013-08-06 16:00:00,71.6,67.9,29.65,SSE,163,7.0,7.0,88,0.00,,,0.00,Wunderground v.1.15,2013-08-06 20:00:00,
2013-08-06 16:10:00,71.3,67.6,29.65,SE,138,6.0,8.0,88,0.00,,,0.00,Wunderground v.1.15,2013-08-06 20:10:00,
2013-08-06 16:20:00,71.0,67.6,29.65,South,169,4.0,5.0,89,0.00,,,0.00,Wunderground v.1.15,2013-08-06 20:20:00,
2013-08-06 16:30:00,71.0,67.6,29.64,South,170,5.0,9.0,89,0.00,,,0.00,Wunderground v.1.15,2013-08-06 20:30:00,
2013-08-06 16:40:00,70.8,67.1,29.64,SSE,148,7.0,7.0,88,0.00,,,0.00,Wunderground v.1.15,2013-08-06 20:40:00,
2013-08-06 16:50:00,71.0,67.3,29.65,South,185,6.0,10.0,88,0.00,,,0.00,Wunderground v.1.15,2013-08-06 20:50:00,
2013-08-06 17:00:00,71.0,67.6,29.65,SSE,167,8.0,8.0,89,0.00,,,0.00,Wunderground v.1.15,2013-08-06 21:00:00,
2013-08-06 17:10:00,71.2,67.8,29.65,SE,134,7.0,7.0,89,0.00,,,0.00,Wunderground v.1.15,2013-08-06 21:10:00,
2013-08-06 17:20:00,71.5,67.8,29.65,South,182,8.0,12.0,88,0.00,,,0.00,Wunderground v.1.15,2013-08-06 21:20:00,
2013-08-06 17:30:00,71.1,67.4,29.65,South,180,9.0,9.0,88,0.00,,,0.00,Wunderground v.1.15,2013-08-06 21:30:00,
2013-08-06 17:40:00,70.7,67.3,29.65,South,184,8.0,8.0,89,0.00,,,0.00,Wunderground v.1.15,2013-08-06 21:40:00,
2013-08-06 17:50:00,70.0,66.6,29.65,South,188,8.0,12.0,89,0.00,,,0.00,Wunderground v.1.15,2013-08-06 21:50:00,
2013-08-06 18:00:00,69.3,66.2,29.65,South,188,8.0,12.0,90,0.00,,,0.00,Wunderground v.1.15,2013-08-06 22:00:00,
2013-08-06 18:10:00,69.4,66.7,29.65,South,178,8.0,8.0,91,0.00,,,0.00,Wunderground v.1.15,2013-08-06 22:10:00,
2013-08-06 18:20:00,69.0,66.3,29.65,South,174,5.0,5.0,91,0.00,,,0.00,Wunderground v.1.15,2013-08-06 22:20:00,
2013-08-06 18:30:00,68.7,66.3,29.65,South,169,3.0,3.0,92,0.00,,,0.00,Wunderground v.1.15,2013-08-06 22:30:00,
2013-08-06 18:40:00,68.4,66.3,29.66,South,182,3.0,12.0,93,0.00,,,0.00,Wunderground v.1.15,2013-08-06 22:40:00,
2013-08-06 18:50:00,68.1,66.0,29.66,South,170,4.0,12.0,93,0.00,,,0.00,Wunderground v.1.15,2013-08-06 22:50:00,
2013-08-06 19:00:00,68.0,65.9,29.66,South,180,5.0,12.0,93,0.00,,,0.00,Wunderground v.1.15,2013-08-06 23:00:00,
2013-08-06 19:10:00,67.9,66.1,29.66,South,171,5.0,12.0,94,0.00,,,0.00,Wunderground v.1.15,2013-08-06 23:10:00,
2013-08-06 19:20:00,68.0,66.2,29.66,South,175,3.0,3.0,94,0.00,,,0.00,Wunderground v.1.15,2013-08-06 23:20:00,
2013-08-06 19:30:00,67.9,66.1,29.66,SSW,192,3.0,12.0,94,0.00,,,0.00,Wunderground v.1.15,2013-08-06 23:30:00,
2013-08-06 19:40:00,67.8,66.0,29.66,South,181,5.0,5.0,94,0.00,,,0.00,Wunderground v.1.15,2013-08-06 23:40:00,
2013-08-06 19:50:00,67.6,65.8,29.66,South,169,5.0,12.0,94,0.00,,,0.00,Wunderground v.1.15,2013-08-06 23:50:00,
2013-08-06 20:00:00,67.4,65.6,29.66,South,175,4.0,4.0,94,0.00,,,0.00,Wunderground v.1.15,2013-08-07 00:00:00,
2013-08-06 20:10:00,67.2,65.4,29.66,South,186,3.0,4.0,94,0.00,,,0.00,Wunderground v.1.15,2013-08-07 00:10:00,
2013-08-06 20:20:00,67.0,65.5,29.66,SSW,195,3.0,3.0,95,0.00,,,0.00,Wunderground v.1.15,2013-08-07 00:20:00,
2013-08-06 20:30:00,66.9,65.4,29.66,SSW,196,3.0,5.0,95,0.00,,,0.00,Wunderground v.1.15,2013-08-07 00:30:00,
2013-08-06 20:40:00,66.8,65.3,29.66,South,182,3.0,5.0,95,0.00,,,0.00,Wunderground v.1.15,2013-08-07 00:40:00,
2013-08-06 20:50:00,66.6,65.1,29.66,South,180,4.0,4.0,95,0.00,,,0.00,Wunderground v.1.15,2013-08-07 00:50:00,
2013-08-06 21:00:00,66.5,65.3,29.66,South,170,3.0,3.0,96,0.00,,,0.00,Wunderground v.1.15,2013-08-07 01:00:00,
2013-08-06 21:10:00,66.4,65.2,29.66,South,184,1.0,1.0,96,0.00,,,0.00,Wunderground v.1.15,2013-08-07 01:10:00,
2013-08-06 21:20:00,66.3,65.1,29.67,South,190,2.0,10.0,96,0.00,,,0.00,Wunderground v.1.15,2013-08-07 01:20:00,
2013-08-06 21:30:00,66.3,65.1,29.66,South,186,6.0,6.0,96,0.00,,,0.00,Wunderground v.1.15,2013-08-07 01:30:00,
2013-08-06 21:40:00,66.3,65.1,29.67,South,184,5.0,10.0,96,0.00,,,0.00,Wunderground v.1.15,2013-08-07 01:40:00,
2013-08-06 21:50:00,66.5,65.3,29.67,South,185,4.0,4.0,96,0.00,,,0.00,Wunderground v.1.15,2013-08-07 01:50:00,
2013-08-06 22:00:00,66.5,65.3,29.67,South,187,5.0,10.0,96,0.00,,,0.00,Wunderground v.1.15,2013-08-07 02:00:00,
2013-08-06 22:10:00,66.3,65.1,29.67,South,184,5.0,5.0,96,0.00,,,0.00,Wunderground v.1.15,2013-08-07 02:10:00,
2013-08-06 22:20:00,66.3,65.1,29.67,SSW,203,5.0,10.0,96,0.00,,,0.00,Wunderground v.1.15,2013-08-07 02:20:00,
2013-08-06 22:30:00,66.1,64.9,29.67,SSW,205,5.0,10.0,96,0.00,,,0.00,Wunderground v.1.15,2013-08-07 02:30:00,
2013-08-06 22:40:00,66.1,64.9,29.67,SW,215,6.0,10.0,96,0.00,,,0.00,Wunderground v.1.15,2013-08-07 02:40:00,
2013-08-06 22:50:00,66.0,64.8,29.67,SSW,209,6.0,10.0,96,0.00,,,0.00,Wunderground v.1.15,2013-08-07 02:50:00,
2013-08-06 23:00:00,65.9,64.4,29.67,SSW,204,7.0,14.0,95,0.00,,,0.00,Wunderground v.1.15,2013-08-07 03:00:00,
2013-08-06 23:10:00,65.9,64.4,29.67,SW,222,5.0,10.0,95,0.00,,,0.00,Wunderground v.1.15,2013-08-07 03:10:00,
2013-08-06 23:20:00,65.9,64.4,29.67,South,190,6.0,6.0,95,0.00,,,0.00,Wunderground v.1.15,2013-08-07 03:20:00,
2013-08-06 23:30:00,65.9,64.4,29.67,SSW,202,5.0,10.0,95,0.00,,,0.00,Wunderground v.1.15,2013-08-07 03:30:00,
2013-08-06 23:40:00,65.8,64.3,29.68,SSW,212,7.0,7.0,95,0.00,,,0.00,Wunderground v.1.15,2013-08-07 03:40:00,
2013-08-06 23:50:00,65.7,64.5,29.68,SSW,202,5.0,5.0,96,0.00,,,0.00,Wunderground v.1.15,2013-08-07 03:50:00,